sensor_id;sensor_type;location;lat;lon;timestamp;temperature;humidity
56046;DHT22;41913;51.030;3.706;2023-04-07T00:00:25;16.10;80.10
56046;DHT22;41913;51.030;3.706;2023-04-07T00:02:57;16.20;80.20
56046;DHT22;41913;51.030;3.706;2023-04-07T00:05:24;16.20;80.10
56046;DHT22;41913;51.030;3.706;2023-04-07T00:07:50;16.20;80.10
56046;DHT22;41913;51.030;3.706;2023-04-07T00:10:17;16.20;80.10
56046;DHT22;41913;51.030;3.706;2023-04-07T00:13:01;16.10;80.10
56046;DHT22;41913;51.030;3.706;2023-04-07T00:15:27;16.20;80.20
56046;DHT22;41913;51.030;3.706;2023-04-07T00:17:54;16.20;80.10
56046;DHT22;41913;51.030;3.706;2023-04-07T00:20:21;16.20;80.10
56046;DHT22;41913;51.030;3.706;2023-04-07T00:22:47;16.10;80.10
56046;DHT22;41913;51.030;3.706;2023-04-07T00:25:13;16.20;80.10
56046;DHT22;41913;51.030;3.706;2023-04-07T00:27:39;16.20;80.10
56046;DHT22;41913;51.030;3.706;2023-04-07T00:30:05;16.20;80.10
56046;DHT22;41913;51.030;3.706;2023-04-07T00:32:32;16.20;80.10
56046;DHT22;41913;51.030;3.706;2023-04-07T00:34:59;16.20;80.10
56046;DHT22;41913;51.030;3.706;2023-04-07T00:37:26;16.20;80.10
56046;DHT22;41913;51.030;3.706;2023-04-07T00:40:09;16.20;80.10
56046;DHT22;41913;51.030;3.706;2023-04-07T00:42:36;16.20;80.10
56046;DHT22;41913;51.030;3.706;2023-04-07T00:45:03;16.20;80.20
56046;DHT22;41913;51.030;3.706;2023-04-07T00:47:30;16.20;80.10
56046;DHT22;41913;51.030;3.706;2023-04-07T00:50:08;16.20;80.10
56046;DHT22;41913;51.030;3.706;2023-04-07T00:52:38;16.20;80.10
56046;DHT22;41913;51.030;3.706;2023-04-07T00:55:18;16.20;80.10
56046;DHT22;41913;51.030;3.706;2023-04-07T00:57:44;16.20;80.10
56046;DHT22;41913;51.030;3.706;2023-04-07T01:00:13;16.10;80.10
56046;DHT22;41913;51.030;3.706;2023-04-07T01:05:49;16.20;80.10
56046;DHT22;41913;51.030;3.706;2023-04-07T01:08:41;16.20;80.10
56046;DHT22;41913;51.030;3.706;2023-04-07T01:11:23;16.10;80.10
56046;DHT22;41913;51.030;3.706;2023-04-07T01:13:51;16.10;80.10
56046;DHT22;41913;51.030;3.706;2023-04-07T01:16:26;16.10;80.10
56046;DHT22;41913;51.030;3.706;2023-04-07T01:19:03;16.10;80.10
56046;DHT22;41913;51.030;3.706;2023-04-07T01:21:32;16.10;80.10
56046;DHT22;41913;51.030;3.706;2023-04-07T01:26:59;16.10;80.10
56046;DHT22;41913;51.030;3.706;2023-04-07T01:29:41;16.10;80.10
56046;DHT22;41913;51.030;3.706;2023-04-07T01:32:13;16.10;80.70
56046;DHT22;41913;51.030;3.706;2023-04-07T01:34:40;16.10;80.10
56046;DHT22;41913;51.030;3.706;2023-04-07T01:37:07;16.10;80.10
56046;DHT22;41913;51.030;3.706;2023-04-07T01:39:34;16.10;80.10
56046;DHT22;41913;51.030;3.706;2023-04-07T01:42:14;16.10;80.60
56046;DHT22;41913;51.030;3.706;2023-04-07T01:44:44;16.10;80.10
56046;DHT22;41913;51.030;3.706;2023-04-07T01:47:11;16.10;80.10
56046;DHT22;41913;51.030;3.706;2023-04-07T01:49:39;16.10;80.10
56046;DHT22;41913;51.030;3.706;2023-04-07T01:52:08;16.10;80.10
56046;DHT22;41913;51.030;3.706;2023-04-07T01:54:36;16.10;80.10
56046;DHT22;41913;51.030;3.706;2023-04-07T01:57:05;16.10;80.10
56046;DHT22;41913;51.030;3.706;2023-04-07T01:59:34;16.10;80.10
56046;DHT22;41913;51.030;3.706;2023-04-07T02:02:01;16.10;80.10
56046;DHT22;41913;51.030;3.706;2023-04-07T02:04:42;16.10;80.10
56046;DHT22;41913;51.030;3.706;2023-04-07T02:07:19;16.10;80.10
56046;DHT22;41913;51.030;3.706;2023-04-07T02:09:50;16.10;80.10
56046;DHT22;41913;51.030;3.706;2023-04-07T02:12:22;16.10;80.70
56046;DHT22;41913;51.030;3.706;2023-04-07T02:14:54;16.20;80.20
56046;DHT22;41913;51.030;3.706;2023-04-07T02:17:22;16.10;80.10
56046;DHT22;41913;51.030;3.706;2023-04-07T02:19:52;16.10;80.10
56046;DHT22;41913;51.030;3.706;2023-04-07T02:22:18;16.10;80.20
56046;DHT22;41913;51.030;3.706;2023-04-07T02:24:47;16.10;80.10
56046;DHT22;41913;51.030;3.706;2023-04-07T02:27:13;16.20;80.20
56046;DHT22;41913;51.030;3.706;2023-04-07T02:29:39;16.20;80.20
56046;DHT22;41913;51.030;3.706;2023-04-07T02:32:11;16.10;80.10
56046;DHT22;41913;51.030;3.706;2023-04-07T02:34:55;16.10;80.10
56046;DHT22;41913;51.030;3.706;2023-04-07T02:37:22;16.10;80.10
56046;DHT22;41913;51.030;3.706;2023-04-07T02:39:50;16.10;80.10
56046;DHT22;41913;51.030;3.706;2023-04-07T02:42:24;16.10;80.20
56046;DHT22;41913;51.030;3.706;2023-04-07T02:44:52;16.10;80.10
56046;DHT22;41913;51.030;3.706;2023-04-07T02:47:17;16.10;80.10
56046;DHT22;41913;51.030;3.706;2023-04-07T02:49:43;16.10;80.10
56046;DHT22;41913;51.030;3.706;2023-04-07T02:52:09;16.10;80.20
56046;DHT22;41913;51.030;3.706;2023-04-07T02:54:35;16.10;80.10
56046;DHT22;41913;51.030;3.706;2023-04-07T02:57:01;16.10;80.10
56046;DHT22;41913;51.030;3.706;2023-04-07T02:59:29;16.10;80.20
56046;DHT22;41913;51.030;3.706;2023-04-07T03:02:05;16.10;80.20
56046;DHT22;41913;51.030;3.706;2023-04-07T03:04:38;16.20;80.70
56046;DHT22;41913;51.030;3.706;2023-04-07T03:07:10;16.10;80.20
56046;DHT22;41913;51.030;3.706;2023-04-07T03:09:35;16.10;80.20
56046;DHT22;41913;51.030;3.706;2023-04-07T03:12:01;16.10;80.20
56046;DHT22;41913;51.030;3.706;2023-04-07T03:14:27;16.10;80.20
56046;DHT22;41913;51.030;3.706;2023-04-07T03:16:53;16.10;80.20
56046;DHT22;41913;51.030;3.706;2023-04-07T03:19:23;16.10;80.20
56046;DHT22;41913;51.030;3.706;2023-04-07T03:21:48;16.10;80.20
56046;DHT22;41913;51.030;3.706;2023-04-07T03:24:18;16.20;80.20
56046;DHT22;41913;51.030;3.706;2023-04-07T03:27:08;16.10;80.20
56046;DHT22;41913;51.030;3.706;2023-04-07T03:29:39;16.10;80.10
56046;DHT22;41913;51.030;3.706;2023-04-07T03:32:06;16.10;80.20
56046;DHT22;41913;51.030;3.706;2023-04-07T03:34:32;16.10;80.20
56046;DHT22;41913;51.030;3.706;2023-04-07T03:36:59;16.10;80.20
56046;DHT22;41913;51.030;3.706;2023-04-07T03:39:26;16.10;80.20
56046;DHT22;41913;51.030;3.706;2023-04-07T03:41:52;16.10;80.20
56046;DHT22;41913;51.030;3.706;2023-04-07T03:44:17;16.10;80.70
56046;DHT22;41913;51.030;3.706;2023-04-07T03:46:43;16.20;80.30
56046;DHT22;41913;51.030;3.706;2023-04-07T03:49:10;16.10;80.20
56046;DHT22;41913;51.030;3.706;2023-04-07T03:51:37;16.10;80.20
56046;DHT22;41913;51.030;3.706;2023-04-07T03:54:03;16.10;80.80
56046;DHT22;41913;51.030;3.706;2023-04-07T03:56:31;16.10;80.20
56046;DHT22;41913;51.030;3.706;2023-04-07T03:58:57;16.10;80.70
56046;DHT22;41913;51.030;3.706;2023-04-07T04:01:22;16.10;80.20
56046;DHT22;41913;51.030;3.706;2023-04-07T04:03:50;16.10;80.20
56046;DHT22;41913;51.030;3.706;2023-04-07T04:06:17;16.10;80.20
56046;DHT22;41913;51.030;3.706;2023-04-07T04:08:43;16.10;80.20
56046;DHT22;41913;51.030;3.706;2023-04-07T04:11:08;16.10;80.20
56046;DHT22;41913;51.030;3.706;2023-04-07T04:13:35;16.10;80.20
56046;DHT22;41913;51.030;3.706;2023-04-07T04:16:04;16.10;80.20
56046;DHT22;41913;51.030;3.706;2023-04-07T04:18:30;16.10;80.20
56046;DHT22;41913;51.030;3.706;2023-04-07T04:20:56;16.10;80.20
56046;DHT22;41913;51.030;3.706;2023-04-07T04:23:25;16.10;80.20
56046;DHT22;41913;51.030;3.706;2023-04-07T04:25:52;16.10;80.20
56046;DHT22;41913;51.030;3.706;2023-04-07T04:28:18;16.10;80.20
56046;DHT22;41913;51.030;3.706;2023-04-07T04:30:47;16.00;80.10
56046;DHT22;41913;51.030;3.706;2023-04-07T04:33:14;16.00;80.10
56046;DHT22;41913;51.030;3.706;2023-04-07T04:35:40;16.10;80.20
56046;DHT22;41913;51.030;3.706;2023-04-07T04:38:09;16.00;80.10
56046;DHT22;41913;51.030;3.706;2023-04-07T04:40:37;16.00;80.10
56046;DHT22;41913;51.030;3.706;2023-04-07T04:43:06;16.00;80.10
56046;DHT22;41913;51.030;3.706;2023-04-07T04:45:34;16.10;80.20
56046;DHT22;41913;51.030;3.706;2023-04-07T04:48:00;16.10;80.20
56046;DHT22;41913;51.030;3.706;2023-04-07T04:50:25;16.00;80.10
56046;DHT22;41913;51.030;3.706;2023-04-07T04:52:51;16.10;80.20
56046;DHT22;41913;51.030;3.706;2023-04-07T04:55:21;16.00;80.10
56046;DHT22;41913;51.030;3.706;2023-04-07T04:57:47;16.00;80.70
56046;DHT22;41913;51.030;3.706;2023-04-07T05:00:13;16.00;80.10
56046;DHT22;41913;51.030;3.706;2023-04-07T05:02:38;16.00;80.20
56046;DHT22;41913;51.030;3.706;2023-04-07T05:05:05;16.10;80.20
56046;DHT22;41913;51.030;3.706;2023-04-07T05:07:33;16.00;80.20
56046;DHT22;41913;51.030;3.706;2023-04-07T05:09:59;16.00;80.20
56046;DHT22;41913;51.030;3.706;2023-04-07T05:12:32;16.00;80.20
56046;DHT22;41913;51.030;3.706;2023-04-07T05:14:57;16.00;80.10
56046;DHT22;41913;51.030;3.706;2023-04-07T05:17:23;16.00;80.20
56046;DHT22;41913;51.030;3.706;2023-04-07T05:19:50;16.00;80.20
56046;DHT22;41913;51.030;3.706;2023-04-07T05:22:21;16.10;80.20
56046;DHT22;41913;51.030;3.706;2023-04-07T05:24:50;16.00;80.20
56046;DHT22;41913;51.030;3.706;2023-04-07T05:27:19;16.10;80.20
56046;DHT22;41913;51.030;3.706;2023-04-07T05:29:44;16.00;80.20
56046;DHT22;41913;51.030;3.706;2023-04-07T05:32:18;16.00;80.20
56046;DHT22;41913;51.030;3.706;2023-04-07T05:34:43;16.00;80.20
56046;DHT22;41913;51.030;3.706;2023-04-07T05:37:15;16.00;80.20
56046;DHT22;41913;51.030;3.706;2023-04-07T05:39:41;16.10;80.20
56046;DHT22;41913;51.030;3.706;2023-04-07T05:42:06;16.00;80.20
56046;DHT22;41913;51.030;3.706;2023-04-07T05:44:34;16.00;80.20
56046;DHT22;41913;51.030;3.706;2023-04-07T05:46:59;16.00;80.20
56046;DHT22;41913;51.030;3.706;2023-04-07T05:49:25;16.00;80.20
56046;DHT22;41913;51.030;3.706;2023-04-07T05:51:52;16.00;80.20
56046;DHT22;41913;51.030;3.706;2023-04-07T05:54:19;16.00;80.20
56046;DHT22;41913;51.030;3.706;2023-04-07T05:56:48;16.00;80.20
56046;DHT22;41913;51.030;3.706;2023-04-07T05:59:17;16.00;80.20
56046;DHT22;41913;51.030;3.706;2023-04-07T06:01:46;16.00;80.20
56046;DHT22;41913;51.030;3.706;2023-04-07T06:04:12;16.10;80.30
56046;DHT22;41913;51.030;3.706;2023-04-07T06:06:38;16.00;80.20
56046;DHT22;41913;51.030;3.706;2023-04-07T06:09:05;16.00;80.20
56046;DHT22;41913;51.030;3.706;2023-04-07T06:11:32;16.00;80.20
56046;DHT22;41913;51.030;3.706;2023-04-07T06:14:02;16.00;80.20
56046;DHT22;41913;51.030;3.706;2023-04-07T06:16:29;16.00;80.20
56046;DHT22;41913;51.030;3.706;2023-04-07T06:19:00;16.00;80.20
56046;DHT22;41913;51.030;3.706;2023-04-07T06:21:28;16.00;80.20
56046;DHT22;41913;51.030;3.706;2023-04-07T06:23:53;16.00;80.20
56046;DHT22;41913;51.030;3.706;2023-04-07T06:26:20;16.00;80.30
56046;DHT22;41913;51.030;3.706;2023-04-07T06:28:47;16.00;80.20
56046;DHT22;41913;51.030;3.706;2023-04-07T06:31:15;16.00;80.20
56046;DHT22;41913;51.030;3.706;2023-04-07T06:33:47;16.00;80.30
56046;DHT22;41913;51.030;3.706;2023-04-07T06:36:13;16.00;80.20
56046;DHT22;41913;51.030;3.706;2023-04-07T06:38:39;16.00;80.30
56046;DHT22;41913;51.030;3.706;2023-04-07T06:41:04;16.00;80.20
56046;DHT22;41913;51.030;3.706;2023-04-07T06:43:32;16.00;80.20
56046;DHT22;41913;51.030;3.706;2023-04-07T06:45:59;16.00;80.30
56046;DHT22;41913;51.030;3.706;2023-04-07T06:48:31;16.00;80.30
56046;DHT22;41913;51.030;3.706;2023-04-07T06:51:29;16.00;80.30
56046;DHT22;41913;51.030;3.706;2023-04-07T06:53:59;16.00;80.20
56046;DHT22;41913;51.030;3.706;2023-04-07T06:56:32;16.00;80.30
56046;DHT22;41913;51.030;3.706;2023-04-07T06:59:06;16.00;80.30
56046;DHT22;41913;51.030;3.706;2023-04-07T07:01:33;16.00;80.30
56046;DHT22;41913;51.030;3.706;2023-04-07T07:03:59;16.00;80.30
56046;DHT22;41913;51.030;3.706;2023-04-07T07:06:28;16.00;80.30
56046;DHT22;41913;51.030;3.706;2023-04-07T07:08:54;16.00;80.30
56046;DHT22;41913;51.030;3.706;2023-04-07T07:11:24;16.00;80.30
56046;DHT22;41913;51.030;3.706;2023-04-07T07:13:58;16.00;80.30
56046;DHT22;41913;51.030;3.706;2023-04-07T07:16:27;16.00;80.30
56046;DHT22;41913;51.030;3.706;2023-04-07T07:18:57;16.00;80.30
56046;DHT22;41913;51.030;3.706;2023-04-07T07:21:26;16.00;80.30
56046;DHT22;41913;51.030;3.706;2023-04-07T07:23:54;16.00;80.30
56046;DHT22;41913;51.030;3.706;2023-04-07T07:26:22;16.00;80.30
56046;DHT22;41913;51.030;3.706;2023-04-07T07:28:48;16.00;80.30
56046;DHT22;41913;51.030;3.706;2023-04-07T07:31:16;16.00;80.30
56046;DHT22;41913;51.030;3.706;2023-04-07T07:33:44;16.00;80.30
56046;DHT22;41913;51.030;3.706;2023-04-07T07:36:13;16.00;80.30
56046;DHT22;41913;51.030;3.706;2023-04-07T07:38:39;16.00;80.30
56046;DHT22;41913;51.030;3.706;2023-04-07T07:41:12;16.00;80.30
56046;DHT22;41913;51.030;3.706;2023-04-07T07:43:41;16.00;80.30
56046;DHT22;41913;51.030;3.706;2023-04-07T07:46:06;16.00;80.40
56046;DHT22;41913;51.030;3.706;2023-04-07T07:48:34;16.00;80.70
56046;DHT22;41913;51.030;3.706;2023-04-07T07:50:59;16.00;80.40
56046;DHT22;41913;51.030;3.706;2023-04-07T07:53:28;16.00;80.40
56046;DHT22;41913;51.030;3.706;2023-04-07T07:56:00;16.00;80.40
56046;DHT22;41913;51.030;3.706;2023-04-07T07:58:32;16.00;80.40
56046;DHT22;41913;51.030;3.706;2023-04-07T08:00:58;16.00;80.40
56046;DHT22;41913;51.030;3.706;2023-04-07T08:03:49;16.00;80.40
56046;DHT22;41913;51.030;3.706;2023-04-07T08:06:15;16.00;80.40
56046;DHT22;41913;51.030;3.706;2023-04-07T08:08:43;16.00;80.40
56046;DHT22;41913;51.030;3.706;2023-04-07T08:11:08;16.00;80.40
56046;DHT22;41913;51.030;3.706;2023-04-07T08:13:40;16.00;80.40
56046;DHT22;41913;51.030;3.706;2023-04-07T08:16:10;16.00;80.50
56046;DHT22;41913;51.030;3.706;2023-04-07T08:18:36;16.00;80.40
56046;DHT22;41913;51.030;3.706;2023-04-07T08:21:03;16.00;80.50
56046;DHT22;41913;51.030;3.706;2023-04-07T08:23:30;16.00;80.40
56046;DHT22;41913;51.030;3.706;2023-04-07T08:25:55;16.00;80.50
56046;DHT22;41913;51.030;3.706;2023-04-07T08:28:22;16.00;80.50
56046;DHT22;41913;51.030;3.706;2023-04-07T08:30:48;16.00;80.50
56046;DHT22;41913;51.030;3.706;2023-04-07T08:33:13;16.00;80.50
56046;DHT22;41913;51.030;3.706;2023-04-07T08:35:39;16.00;80.50
56046;DHT22;41913;51.030;3.706;2023-04-07T08:38:04;16.00;80.50
56046;DHT22;41913;51.030;3.706;2023-04-07T08:40:31;16.00;80.50
56046;DHT22;41913;51.030;3.706;2023-04-07T08:42:59;16.00;80.50
56046;DHT22;41913;51.030;3.706;2023-04-07T08:45:25;16.00;80.50
56046;DHT22;41913;51.030;3.706;2023-04-07T08:47:54;16.00;80.50
56046;DHT22;41913;51.030;3.706;2023-04-07T08:50:25;16.00;80.50
56046;DHT22;41913;51.030;3.706;2023-04-07T08:52:53;16.00;80.50
56046;DHT22;41913;51.030;3.706;2023-04-07T08:55:19;16.00;80.50
56046;DHT22;41913;51.030;3.706;2023-04-07T08:57:45;16.00;80.50
56046;DHT22;41913;51.030;3.706;2023-04-07T09:00:12;16.00;80.50
56046;DHT22;41913;51.030;3.706;2023-04-07T09:02:42;16.00;80.50
56046;DHT22;41913;51.030;3.706;2023-04-07T09:05:12;16.00;80.50
56046;DHT22;41913;51.030;3.706;2023-04-07T09:07:42;16.00;80.50
56046;DHT22;41913;51.030;3.706;2023-04-07T09:10:09;16.00;80.50
56046;DHT22;41913;51.030;3.706;2023-04-07T09:12:42;16.00;80.50
56046;DHT22;41913;51.030;3.706;2023-04-07T09:15:09;16.00;80.50
56046;DHT22;41913;51.030;3.706;2023-04-07T09:17:34;16.00;80.60
56046;DHT22;41913;51.030;3.706;2023-04-07T09:20:08;16.00;80.60
56046;DHT22;41913;51.030;3.706;2023-04-07T09:22:38;16.00;80.60
56046;DHT22;41913;51.030;3.706;2023-04-07T09:25:19;16.00;80.60
56046;DHT22;41913;51.030;3.706;2023-04-07T09:28:01;16.00;80.60
56046;DHT22;41913;51.030;3.706;2023-04-07T09:30:29;16.10;80.70
56046;DHT22;41913;51.030;3.706;2023-04-07T09:32:56;16.00;80.70
56046;DHT22;41913;51.030;3.706;2023-04-07T09:35:28;16.00;80.70
56046;DHT22;41913;51.030;3.706;2023-04-07T09:38:05;16.00;80.70
56046;DHT22;41913;51.030;3.706;2023-04-07T09:40:35;16.00;80.70
56046;DHT22;41913;51.030;3.706;2023-04-07T09:43:03;16.00;80.70
56046;DHT22;41913;51.030;3.706;2023-04-07T09:45:30;16.00;80.70
56046;DHT22;41913;51.030;3.706;2023-04-07T09:48:06;16.00;80.70
56046;DHT22;41913;51.030;3.706;2023-04-07T09:50:39;16.00;80.70
56046;DHT22;41913;51.030;3.706;2023-04-07T09:53:11;16.00;80.70
56046;DHT22;41913;51.030;3.706;2023-04-07T09:55:41;16.00;80.70
56046;DHT22;41913;51.030;3.706;2023-04-07T09:58:11;16.00;80.70
56046;DHT22;41913;51.030;3.706;2023-04-07T10:00:40;16.00;80.70
56046;DHT22;41913;51.030;3.706;2023-04-07T10:03:06;16.00;80.70
56046;DHT22;41913;51.030;3.706;2023-04-07T10:05:34;16.00;80.70
56046;DHT22;41913;51.030;3.706;2023-04-07T10:08:05;16.00;80.70
56046;DHT22;41913;51.030;3.706;2023-04-07T10:10:31;16.00;80.70
56046;DHT22;41913;51.030;3.706;2023-04-07T10:13:03;16.10;80.80
56046;DHT22;41913;51.030;3.706;2023-04-07T10:15:30;16.00;80.70
56046;DHT22;41913;51.030;3.706;2023-04-07T10:17:58;16.10;80.80
56046;DHT22;41913;51.030;3.706;2023-04-07T10:20:30;16.00;80.70
56046;DHT22;41913;51.030;3.706;2023-04-07T10:26:20;16.00;80.80
56046;DHT22;41913;51.030;3.706;2023-04-07T10:28:51;16.00;80.80
56046;DHT22;41913;51.030;3.706;2023-04-07T10:31:18;16.00;80.80
56046;DHT22;41913;51.030;3.706;2023-04-07T10:33:53;16.10;80.90
56046;DHT22;41913;51.030;3.706;2023-04-07T10:36:22;16.00;80.80
56046;DHT22;41913;51.030;3.706;2023-04-07T10:41:41;16.00;80.90
56046;DHT22;41913;51.030;3.706;2023-04-07T10:44:43;16.00;80.90
56046;DHT22;41913;51.030;3.706;2023-04-07T10:49:22;16.00;80.90
56046;DHT22;41913;51.030;3.706;2023-04-07T10:52:20;16.00;80.90
56046;DHT22;41913;51.030;3.706;2023-04-07T10:54:46;16.00;80.90
56046;DHT22;41913;51.030;3.706;2023-04-07T10:57:16;16.00;80.90
56046;DHT22;41913;51.030;3.706;2023-04-07T11:02:46;16.00;80.90
56046;DHT22;41913;51.030;3.706;2023-04-07T11:05:23;16.00;80.90
56046;DHT22;41913;51.030;3.706;2023-04-07T11:07:51;16.00;80.90
56046;DHT22;41913;51.030;3.706;2023-04-07T11:10:19;16.00;80.90
56046;DHT22;41913;51.030;3.706;2023-04-07T11:13:06;16.00;80.90
56046;DHT22;41913;51.030;3.706;2023-04-07T11:15:36;16.00;80.90
56046;DHT22;41913;51.030;3.706;2023-04-07T11:18:19;16.00;81.00
56046;DHT22;41913;51.030;3.706;2023-04-07T11:20:49;16.00;81.00
56046;DHT22;41913;51.030;3.706;2023-04-07T11:23:17;16.00;81.00
56046;DHT22;41913;51.030;3.706;2023-04-07T11:25:44;16.00;81.00
56046;DHT22;41913;51.030;3.706;2023-04-07T11:28:12;16.00;81.00
56046;DHT22;41913;51.030;3.706;2023-04-07T11:30:42;16.00;81.00
56046;DHT22;41913;51.030;3.706;2023-04-07T11:33:18;16.10;81.10
56046;DHT22;41913;51.030;3.706;2023-04-07T11:35:52;16.10;81.00
56046;DHT22;41913;51.030;3.706;2023-04-07T11:38:23;16.10;81.10
56046;DHT22;41913;51.030;3.706;2023-04-07T11:40:49;16.10;81.10
56046;DHT22;41913;51.030;3.706;2023-04-07T11:45:45;16.10;81.10
56046;DHT22;41913;51.030;3.706;2023-04-07T11:48:31;16.10;81.10
56046;DHT22;41913;51.030;3.706;2023-04-07T11:50:59;16.10;81.10
56046;DHT22;41913;51.030;3.706;2023-04-07T11:53:28;16.10;81.10
56046;DHT22;41913;51.030;3.706;2023-04-07T11:56:08;16.10;81.10
56046;DHT22;41913;51.030;3.706;2023-04-07T11:58:37;16.00;81.00
56046;DHT22;41913;51.030;3.706;2023-04-07T12:01:05;16.10;81.10
56046;DHT22;41913;51.030;3.706;2023-04-07T12:03:58;16.10;81.60
56046;DHT22;41913;51.030;3.706;2023-04-07T12:06:30;16.10;81.10
56046;DHT22;41913;51.030;3.706;2023-04-07T12:11:57;16.10;81.10
56046;DHT22;41913;51.030;3.706;2023-04-07T12:14:29;16.10;81.10
56046;DHT22;41913;51.030;3.706;2023-04-07T12:16:55;16.10;81.10
56046;DHT22;41913;51.030;3.706;2023-04-07T12:19:25;16.10;81.10
56046;DHT22;41913;51.030;3.706;2023-04-07T12:21:52;16.10;81.20
56046;DHT22;41913;51.030;3.706;2023-04-07T12:24:19;16.10;81.10
56046;DHT22;41913;51.030;3.706;2023-04-07T12:26:48;16.10;81.10
56046;DHT22;41913;51.030;3.706;2023-04-07T12:29:17;16.10;81.10
56046;DHT22;41913;51.030;3.706;2023-04-07T12:31:44;16.10;81.10
56046;DHT22;41913;51.030;3.706;2023-04-07T12:34:11;16.10;81.10
56046;DHT22;41913;51.030;3.706;2023-04-07T12:36:39;16.10;81.10
56046;DHT22;41913;51.030;3.706;2023-04-07T12:39:08;16.10;81.10
56046;DHT22;41913;51.030;3.706;2023-04-07T12:41:34;16.10;81.10
56046;DHT22;41913;51.030;3.706;2023-04-07T12:44:03;16.10;81.10
56046;DHT22;41913;51.030;3.706;2023-04-07T12:46:32;16.10;81.10
56046;DHT22;41913;51.030;3.706;2023-04-07T12:48:58;16.10;81.20
56046;DHT22;41913;51.030;3.706;2023-04-07T12:51:26;16.10;81.20
56046;DHT22;41913;51.030;3.706;2023-04-07T12:53:55;16.10;81.10
56046;DHT22;41913;51.030;3.706;2023-04-07T12:56:22;16.10;81.20
56046;DHT22;41913;51.030;3.706;2023-04-07T12:58:49;16.10;81.20
56046;DHT22;41913;51.030;3.706;2023-04-07T13:01:18;16.10;81.70
56046;DHT22;41913;51.030;3.706;2023-04-07T13:03:45;16.10;81.10
56046;DHT22;41913;51.030;3.706;2023-04-07T13:06:14;16.10;81.10
56046;DHT22;41913;51.030;3.706;2023-04-07T13:08:40;16.10;81.20
56046;DHT22;41913;51.030;3.706;2023-04-07T13:11:06;16.10;81.20
56046;DHT22;41913;51.030;3.706;2023-04-07T13:13:32;16.10;81.20
56046;DHT22;41913;51.030;3.706;2023-04-07T13:15:59;16.10;81.10
56046;DHT22;41913;51.030;3.706;2023-04-07T13:18:25;16.20;81.20
56046;DHT22;41913;51.030;3.706;2023-04-07T13:20:54;16.20;81.20
56046;DHT22;41913;51.030;3.706;2023-04-07T13:23:21;16.20;81.20
56046;DHT22;41913;51.030;3.706;2023-04-07T13:25:50;16.10;81.10
56046;DHT22;41913;51.030;3.706;2023-04-07T13:28:17;16.10;81.10
56046;DHT22;41913;51.030;3.706;2023-04-07T13:30:51;16.10;81.10
56046;DHT22;41913;51.030;3.706;2023-04-07T13:33:16;16.10;81.20
56046;DHT22;41913;51.030;3.706;2023-04-07T13:35:48;16.10;81.10
56046;DHT22;41913;51.030;3.706;2023-04-07T13:38:14;16.10;81.10
56046;DHT22;41913;51.030;3.706;2023-04-07T13:40:45;16.20;81.20
56046;DHT22;41913;51.030;3.706;2023-04-07T13:43:13;16.10;81.10
56046;DHT22;41913;51.030;3.706;2023-04-07T13:45:49;16.10;81.10
56046;DHT22;41913;51.030;3.706;2023-04-07T13:48:19;16.20;81.20
56046;DHT22;41913;51.030;3.706;2023-04-07T13:50:44;16.10;81.10
56046;DHT22;41913;51.030;3.706;2023-04-07T13:53:11;16.20;81.20
56046;DHT22;41913;51.030;3.706;2023-04-07T13:55:42;16.20;81.20
56046;DHT22;41913;51.030;3.706;2023-04-07T13:58:09;16.10;81.10
56046;DHT22;41913;51.030;3.706;2023-04-07T14:00:37;16.10;81.10
56046;DHT22;41913;51.030;3.706;2023-04-07T14:03:07;16.20;81.20
56046;DHT22;41913;51.030;3.706;2023-04-07T14:05:34;16.20;81.20
56046;DHT22;41913;51.030;3.706;2023-04-07T14:08:00;16.20;81.20
56046;DHT22;41913;51.030;3.706;2023-04-07T14:10:29;16.20;81.70
56046;DHT22;41913;51.030;3.706;2023-04-07T14:13:00;16.10;81.10
56046;DHT22;41913;51.030;3.706;2023-04-07T14:15:27;16.10;81.10
56046;DHT22;41913;51.030;3.706;2023-04-07T14:17:53;16.10;81.10
56046;DHT22;41913;51.030;3.706;2023-04-07T14:20:20;16.20;81.20
56046;DHT22;41913;51.030;3.706;2023-04-07T14:22:45;16.20;81.20
56046;DHT22;41913;51.030;3.706;2023-04-07T14:25:11;16.20;81.20
56046;DHT22;41913;51.030;3.706;2023-04-07T14:27:38;16.20;81.20
56046;DHT22;41913;51.030;3.706;2023-04-07T14:30:04;16.20;81.20
56046;DHT22;41913;51.030;3.706;2023-04-07T14:32:35;16.20;81.20
56046;DHT22;41913;51.030;3.706;2023-04-07T14:35:04;16.20;81.20
56046;DHT22;41913;51.030;3.706;2023-04-07T14:37:33;16.20;81.20
56046;DHT22;41913;51.030;3.706;2023-04-07T14:40:07;16.20;81.20
56046;DHT22;41913;51.030;3.706;2023-04-07T14:42:33;16.20;81.20
56046;DHT22;41913;51.030;3.706;2023-04-07T14:45:01;16.20;81.20
56046;DHT22;41913;51.030;3.706;2023-04-07T14:47:27;16.20;81.20
56046;DHT22;41913;51.030;3.706;2023-04-07T14:49:54;16.20;81.20
56046;DHT22;41913;51.030;3.706;2023-04-07T14:52:22;16.20;81.20
56046;DHT22;41913;51.030;3.706;2023-04-07T14:54:49;16.20;81.20
56046;DHT22;41913;51.030;3.706;2023-04-07T14:57:15;16.20;81.20
56046;DHT22;41913;51.030;3.706;2023-04-07T14:59:41;16.20;81.20
56046;DHT22;41913;51.030;3.706;2023-04-07T15:02:07;16.20;81.20
56046;DHT22;41913;51.030;3.706;2023-04-07T15:04:39;16.20;81.20
56046;DHT22;41913;51.030;3.706;2023-04-07T15:07:10;16.20;81.20
56046;DHT22;41913;51.030;3.706;2023-04-07T15:09:37;16.20;81.20
56046;DHT22;41913;51.030;3.706;2023-04-07T15:12:09;16.20;81.20
56046;DHT22;41913;51.030;3.706;2023-04-07T15:14:34;16.20;81.20
56046;DHT22;41913;51.030;3.706;2023-04-07T15:17:00;16.20;81.20
56046;DHT22;41913;51.030;3.706;2023-04-07T15:19:27;16.20;81.20
56046;DHT22;41913;51.030;3.706;2023-04-07T15:21:52;16.20;81.20
56046;DHT22;41913;51.030;3.706;2023-04-07T15:24:18;16.20;81.20
56046;DHT22;41913;51.030;3.706;2023-04-07T15:26:48;16.20;81.20
56046;DHT22;41913;51.030;3.706;2023-04-07T15:29:14;16.20;81.20
56046;DHT22;41913;51.030;3.706;2023-04-07T15:31:39;16.20;81.20
56046;DHT22;41913;51.030;3.706;2023-04-07T15:34:05;16.20;81.20
56046;DHT22;41913;51.030;3.706;2023-04-07T15:36:33;16.20;81.20
56046;DHT22;41913;51.030;3.706;2023-04-07T15:39:03;16.20;81.20
56046;DHT22;41913;51.030;3.706;2023-04-07T15:41:32;16.20;81.20
56046;DHT22;41913;51.030;3.706;2023-04-07T15:43:59;16.20;81.20
56046;DHT22;41913;51.030;3.706;2023-04-07T15:46:25;16.20;81.20
56046;DHT22;41913;51.030;3.706;2023-04-07T15:48:54;16.20;81.20
56046;DHT22;41913;51.030;3.706;2023-04-07T15:51:23;16.20;81.20
56046;DHT22;41913;51.030;3.706;2023-04-07T15:53:49;16.20;81.20
56046;DHT22;41913;51.030;3.706;2023-04-07T15:56:18;16.20;81.70
56046;DHT22;41913;51.030;3.706;2023-04-07T15:58:47;16.20;81.20
56046;DHT22;41913;51.030;3.706;2023-04-07T16:01:13;16.20;81.20
56046;DHT22;41913;51.030;3.706;2023-04-07T16:03:42;16.20;81.20